Latest Weather Observations for Orange Airport

IDN60801

Issued at 3:05 am EST Sunday 27 July 2014 (issued every 30 minutes, with the page automatically refreshed every 10 minutes)

About weather observations | Map of weather stations | Latest weather observations for NSW | Other Formats
Station Details ID: 063303 Name: ORANGE AIRPORT AWS Lat: -33.38 Lon: 149.13 Height: 947.4 m
Data from the previous 72 hours. | See also: Recent months at Orange Airport
Date/Time
EST
Temp
°C
App
Temp
°C
Dew
Point
Rel
Hum
%
Delta-T
°C
Wind Press
QNH
hPa
Press
MSL
hPa
Rain
since 9 am
mm
Dir
 
Spd
km/h
Gust
km/h
Spd
kts
Gust
kts
27/03:00am 5.9 1.0 4.9 93 0.5 SSW 20 28 11 15 1024.7 1026.0 0.4
27/02:30am 5.9 1.0 4.9 93 0.5 SW 20 32 11 17 1024.9 - 0.4
27/02:00am 6.0 1.1 5.0 93 0.5 SW 20 32 11 17 1025.0 1026.3 0.4
27/01:30am 6.1 1.2 5.1 93 0.5 SSW 20 33 11 18 1025.1 - 0.4
27/01:00am 6.0 1.3 5.0 93 0.5 SW 19 28 10 15 1025.3 1026.7 0.4
27/12:30am 6.1 1.4 5.1 93 0.5 SW 19 28 10 15 1025.4 - 0.4
27/12:00am 6.2 1.9 5.2 93 0.5 SW 17 24 9 13 1025.4 1026.8 0.4
 
Date/Time
EST
Temp
°C
App
Temp
°C
Dew
Point
Rel
Hum
%
Delta-T
°C
Wind Press
QNH
hPa
Press
MSL
hPa
Rain
since 9 am
mm
Dir
 
Spd
km/h
Gust
km/h
Spd
kts
Gust
kts
26/11:30pm 6.4 1.8 5.4 93 0.5 SW 19 30 10 16 1025.6 - 0.4
26/11:00pm 5.8 2.2 4.8 93 0.5 SW 13 20 7 11 1025.7 1027.0 0.4
26/10:30pm 6.2 1.5 5.2 93 0.5 SW 19 26 10 14 1025.7 - 0.4
26/10:00pm 6.3 2.0 5.3 93 0.5 SW 17 28 9 15 1025.8 1027.1 0.4
26/09:30pm 6.5 2.6 5.5 93 0.5 SW 15 20 8 11 1025.9 - 0.4
26/09:00pm 6.5 3.0 5.5 93 0.5 SW 13 19 7 10 1025.6 1026.9 0.4
26/08:37pm 6.4 2.9 5.4 93 0.5 WSW 13 22 7 12 1025.6 - 0.4
26/08:30pm 6.2 2.3 5.2 93 0.5 WSW 15 20 8 11 1025.4 - 0.4
26/08:00pm 6.1 2.5 5.1 93 0.5 SW 13 17 7 9 1025.1 1026.4 0.4
26/07:30pm 6.8 3.0 5.7 93 0.5 SW 15 20 8 11 1025.1 - 0.4
26/07:00pm 7.0 3.6 5.8 92 0.6 WSW 13 19 7 10 1025.0 1026.3 0.4
26/06:30pm 7.0 1.9 5.8 92 0.6 SSW 22 37 12 20 1024.9 - 0.4
26/06:00pm 7.4 4.2 5.2 86 1.0 W 11 15 6 8 1024.5 1025.8 0.0
26/05:30pm 7.7 4.1 4.8 82 1.4 WSW 13 20 7 11 1024.1 - 0.0
26/05:00pm 8.9 4.5 4.7 75 2.0 W 17 24 9 13 1023.9 1025.2 0.0
26/04:30pm 9.7 5.3 4.9 72 2.3 WSW 17 26 9 14 1023.6 - 0.0
26/04:00pm 9.7 5.0 5.3 74 2.1 WSW 19 28 10 15 1023.6 1024.9 0.0
26/03:30pm 7.9 3.6 5.4 84 1.2 SSW 17 26 9 14 1023.6 - 0.0
26/03:00pm 10.4 4.5 3.9 64 3.0 W 24 35 13 19 1023.2 1024.5 0.0
26/02:30pm 11.1 6.1 3.6 60 3.5 WSW 19 28 10 15 1023.0 - 0.0
26/02:00pm 10.3 4.6 2.7 59 3.4 WSW 22 32 12 17 1023.2 1024.5 0.0
26/01:30pm 11.2 6.3 4.2 62 3.3 WSW 19 28 10 15 1023.2 - 0.0
26/01:00pm 10.5 5.7 4.4 66 2.9 WSW 19 24 10 13 1023.6 1024.9 0.0
26/12:30pm 10.4 5.0 4.5 67 2.8 WSW 22 33 12 18 1023.9 - 0.0
26/12:00pm 9.9 5.0 4.9 71 2.4 WSW 20 30 11 16 1024.5 1025.8 0.0
26/11:30am 10.4 6.4 6.5 77 1.9 WSW 17 22 9 12 1024.7 - 0.0
26/11:00am 11.0 6.9 6.0 71 2.4 WSW 17 26 9 14 1025.0 1026.3 0.0
26/10:30am 9.5 5.7 7.4 87 1.1 SW 17 22 9 12 1025.1 - 0.0
26/10:00am 9.1 5.9 6.9 86 1.1 SW 13 17 7 9 1025.2 1026.6 0.0
26/09:30am 7.8 7.0 6.7 93 0.5 CALM 0 9 0 5 1025.1 - 0.0
26/09:00am 6.9 4.8 5.8 93 0.5 WSW 6 7 3 4 1024.9 1026.2 9.0
26/08:30am 6.4 3.7 5.4 93 0.5 SW 9 9 5 5 1025.0 - 9.0
26/08:00am 6.1 4.6 5.1 93 0.5 NE 2 9 1 5 1024.3 1025.7 9.0
26/07:30am 5.8 2.9 4.8 93 0.5 NW 9 9 5 5 1024.6 - 9.0
26/07:00am 6.0 4.9 5.0 93 0.5 CALM 0 0 0 0 1023.9 1025.2 9.0
26/06:30am 6.6 5.6 5.6 93 0.5 CALM 0 0 0 0 1023.8 - 9.0
26/06:00am 6.7 4.0 5.7 93 0.5 SE 9 13 5 7 1023.5 1024.8 9.0
26/05:44am 7.0 3.6 5.9 93 0.5 SSW 13 17 7 9 1023.9 - 8.6
26/05:30am 7.3 3.2 6.2 93 0.5 SSW 17 22 9 12 1023.9 - 7.2
26/05:28am 7.3 3.2 6.2 93 0.5 SSW 17 22 9 12 1023.9 - 7.0
26/05:00am 8.0 5.6 6.9 93 0.5 NNW 9 13 5 7 1023.1 1024.4 3.4
26/04:45am 7.8 3.8 6.7 93 0.5 E 17 19 9 10 1022.6 - 0.8
26/04:30am 7.3 4.3 6.2 93 0.5 SE 11 13 6 7 1022.5 - 0.0
26/04:00am 7.1 6.2 6.0 93 0.5 CALM 0 0 0 0 1022.7 1024.0 0.0
26/03:30am 6.9 5.6 5.8 93 0.5 E 2 6 1 3 1022.8 - 0.0
26/03:11am 6.4 4.6 5.4 93 0.5 ENE 4 7 2 4 1022.9 - 0.0
26/03:00am 5.8 4.6 4.8 93 0.5 CALM 0 0 0 0 1023.1 1024.4 0.0
26/02:30am 5.9 4.0 4.9 93 0.5 N 4 7 2 4 1023.2 - 0.0
26/02:07am 6.8 5.1 5.7 93 0.5 WSW 4 7 2 4 1023.4 - 0.0
26/02:00am 6.5 5.5 5.5 93 0.5 CALM 0 6 0 3 1023.4 1024.6 0.0
26/01:40am 6.3 4.9 5.3 93 0.5 SSW 2 7 1 4 1023.5 - 0.0
26/01:30am 6.2 4.0 5.2 93 0.5 SSW 6 9 3 5 1023.1 - 0.0
26/01:00am 8.5 6.8 7.4 93 0.5 W 6 7 3 4 1023.9 1025.2 0.0
26/12:30am 9.2 8.4 8.1 93 0.6 W 2 7 1 4 1024.0 - 0.0
26/12:00am 9.4 6.9 8.3 93 0.6 W 11 17 6 9 1023.9 1025.2 0.0
 
Date/Time
EST
Temp
°C
App
Temp
°C
Dew
Point
Rel
Hum
%
Delta-T
°C
Wind Press
QNH
hPa
Press
MSL
hPa
Rain
since 9 am
mm
Dir
 
Spd
km/h
Gust
km/h
Spd
kts
Gust
kts
25/11:30pm 9.3 5.7 8.2 93 0.6 WNW 17 26 9 14 1024.1 - 0.0
25/11:00pm 9.1 4.8 8.0 93 0.6 NW 20 24 11 13 1024.2 1025.5 0.0
25/10:30pm 8.8 4.1 7.7 93 0.6 NNW 22 28 12 15 1024.3 - 0.0
25/10:00pm 8.0 5.2 6.9 93 0.5 N 11 13 6 7 1024.1 1025.4 0.0
25/09:53pm 7.8 4.9 6.7 93 0.5 N 11 13 6 7 1024.0 - 0.0
25/09:36pm 6.6 3.1 5.6 93 0.5 N 13 17 7 9 1024.1 - 0.0
25/09:30pm 5.3 1.6 4.3 93 0.5 N 13 15 7 8 1024.1 - 0.0
25/09:16pm 5.5 1.8 4.5 93 0.5 N 13 15 7 8 1024.0 - 0.0
25/09:00pm 5.8 1.8 4.8 93 0.5 N 15 17 8 9 1024.1 1025.4 0.0
25/08:54pm 5.8 1.8 4.8 93 0.5 N 15 15 8 8 1024.0 - 0.0
25/08:35pm 6.4 3.3 5.4 93 0.5 N 11 11 6 6 1023.9 - 0.0
25/08:30pm 6.8 3.7 5.7 93 0.5 N 11 11 6 6 1023.9 - 0.0
25/08:00pm 7.4 4.1 6.3 93 0.5 N 13 13 7 7 1023.7 1025.0 0.0
25/07:30pm 7.5 4.2 6.4 93 0.5 N 13 15 7 8 1023.7 - 0.0
25/07:00pm 8.5 5.0 7.4 93 0.5 N 15 17 8 9 1023.4 1024.6 0.0
25/06:59pm 8.5 5.0 7.4 93 0.5 N 15 17 8 9 1023.2 - 0.0
25/06:30pm 9.3 6.0 8.2 93 0.6 N 15 19 8 10 1023.1 - 0.0
25/06:00pm 9.4 6.2 8.3 93 0.6 N 15 17 8 9 1023.0 1024.3 0.0
25/05:30pm 9.6 5.5 8.5 93 0.6 N 20 24 11 13 1022.8 - 0.0
25/05:00pm 9.9 5.1 8.7 92 0.6 N 24 30 13 16 1022.5 1023.8 0.0
25/04:42pm 10.2 5.4 8.8 91 0.7 N 24 32 13 17 1022.5 - 0.0
25/04:30pm 10.3 5.5 8.9 91 0.7 N 24 32 13 17 1022.3 - 0.0
25/04:28pm 10.4 5.6 9.0 91 0.7 N 24 32 13 17 1022.3 - 0.0
25/04:00pm 10.7 5.5 9.0 89 0.9 N 26 33 14 18 1022.0 1023.3 0.0
25/03:30pm 11.0 5.4 8.8 86 1.1 N 28 39 15 21 1022.2 - 0.0
25/03:00pm 11.2 5.5 8.4 83 1.4 N 28 37 15 20 1021.8 1023.1 0.0
25/02:30pm 11.7 6.5 8.9 83 1.5 N 26 32 14 17 1021.9 - 0.0
25/02:00pm 11.6 6.8 8.8 83 1.5 N 24 33 13 18 1021.9 1023.2 0.0
25/01:30pm 11.8 7.1 9.2 84 1.4 NNW 24 33 13 18 1022.0 - 0.0
25/01:22pm 11.4 6.2 8.8 84 1.4 N 26 33 14 18 1022.3 - 0.0
25/01:00pm 11.7 5.8 8.9 83 1.5 NNW 30 35 16 19 1022.4 1023.6 0.0
25/12:30pm 11.9 6.1 9.3 84 1.4 NNW 30 35 16 19 1022.5 - 0.0
25/12:00pm 12.7 8.4 9.5 81 1.7 NNW 22 32 12 17 1022.9 1024.2 0.0
25/11:30am 12.3 7.1 9.0 80 1.7 N 26 35 14 19 1023.1 - 0.0
25/11:00am 11.6 6.8 8.8 83 1.5 N 24 30 13 16 1023.6 1024.9 0.0
25/10:41am 11.3 5.7 8.7 84 1.4 N 28 39 15 21 1023.5 - 0.0
25/10:30am 10.5 3.5 8.3 86 1.1 N 35 46 19 25 1023.6 - 0.0
25/10:00am 10.1 5.3 9.0 93 0.6 N 24 30 13 16 1023.6 1024.9 0.0
25/09:30am 8.7 3.2 7.6 93 0.6 N 26 33 14 18 1023.4 - 0.0
25/09:00am 8.5 2.6 7.4 93 0.5 N 28 35 15 19 1023.1 1024.4 2.4
25/08:30am 8.3 2.3 7.2 93 0.5 N 28 35 15 19 1022.9 - 2.2
25/08:00am 8.0 2.0 6.9 93 0.5 N 28 37 15 20 1022.8 1024.1 2.2
25/07:30am 7.8 2.9 6.7 93 0.5 N 22 30 12 16 1022.7 - 1.8
25/07:00am 7.8 1.7 6.7 93 0.5 N 28 37 15 20 1022.5 1023.8 1.6
25/06:52am 7.8 2.1 6.7 93 0.5 N 26 35 14 19 1022.4 - 1.6
25/06:30am 7.8 0.8 6.7 93 0.5 N 33 43 18 23 1021.9 - 1.6
25/06:17am 8.3 1.6 7.2 93 0.5 N 32 46 17 25 1022.0 - 1.0
25/06:00am 8.3 3.4 7.1 92 0.6 NNW 22 28 12 15 1022.0 1023.3 0.4
25/05:30am 5.4 0.9 4.4 93 0.5 N 17 20 9 11 1021.1 - 0.4
25/05:00am 4.7 0.9 3.7 93 0.4 N 13 15 7 8 1020.4 1021.6 0.4
25/04:30am 5.2 1.8 4.2 93 0.5 NE 11 13 6 7 1020.3 - 0.4
25/04:00am 5.4 2.1 4.4 93 0.5 NE 11 13 6 7 1020.4 1021.6 0.4
25/03:30am 5.7 2.4 4.7 93 0.5 NE 11 13 6 7 1020.4 - 0.4
25/03:00am 5.5 1.8 4.5 93 0.5 NNE 13 15 7 8 1020.5 1021.7 0.4
25/02:57am 5.3 2.0 4.3 93 0.5 NNE 11 13 6 7 1020.5 - 0.4
25/02:44am 5.0 1.6 4.0 93 0.4 NNE 11 13 6 7 1020.5 - 0.4
25/02:30am 4.7 1.2 3.7 93 0.4 NNE 11 11 6 6 1020.5 - 0.4
25/02:00am 4.3 0.8 3.3 93 0.4 N 11 13 6 7 1020.5 1021.7 0.4
25/01:30am 4.3 0.8 3.3 93 0.4 N 11 13 6 7 1020.5 - 0.2
25/01:27am 4.3 0.8 3.3 93 0.4 N 11 13 6 7 1020.5 - 0.2
25/01:00am 4.7 1.2 3.7 93 0.4 N 11 13 6 7 1020.5 1021.7 0.2
25/12:30am 4.3 0.8 3.3 93 0.4 N 11 13 6 7 1020.5 - 0.2
25/12:26am 4.7 1.2 3.7 93 0.4 N 11 13 6 7 1020.5 - 0.2
25/12:00am 5.8 2.9 4.8 93 0.5 N 9 11 5 6 1020.7 1022.0 0.2
 
Date/Time
EST
Temp
°C
App
Temp
°C
Dew
Point
Rel
Hum
%
Delta-T
°C
Wind Press
QNH
hPa
Press
MSL
hPa
Rain
since 9 am
mm
Dir
 
Spd
km/h
Gust
km/h
Spd
kts
Gust
kts
24/11:30pm 6.2 3.8 5.2 93 0.5 NNW 7 9 4 5 1020.8 - 0.2
24/11:00pm 5.6 2.7 4.6 93 0.5 N 9 11 5 6 1021.1 1022.3 0.2
24/10:30pm 5.5 2.6 4.5 93 0.5 N 9 11 5 6 1021.1 - 0.2
24/10:00pm 5.1 2.1 4.1 93 0.4 N 9 11 5 6 1020.9 1022.2 0.2
24/09:30pm 5.7 2.0 4.7 93 0.5 N 13 15 7 8 1021.2 - 0.2
24/09:00pm 5.6 1.5 4.6 93 0.5 N 15 17 8 9 1020.9 1022.2 0.2
24/08:30pm 7.2 3.4 6.0 92 0.6 N 15 19 8 10 1020.7 - 0.2
24/08:00pm 8.4 3.9 6.9 90 0.7 N 20 24 11 13 1020.5 1021.7 0.2
24/07:30pm 8.3 3.0 6.9 91 0.7 N 24 32 13 17 1020.1 - 0.2
24/07:00pm 7.8 3.2 6.6 92 0.6 N 20 24 11 13 1019.9 1021.1 0.2
24/06:30pm 7.9 3.3 6.7 92 0.6 N 20 24 11 13 1019.4 - 0.2
24/06:00pm 7.5 3.4 6.3 92 0.6 N 17 20 9 11 1019.2 1020.4 0.2
24/05:30pm 7.9 3.8 6.2 89 0.8 NNE 17 20 9 11 1019.0 - 0.2
24/05:00pm 8.5 4.0 6.3 86 1.1 NNE 19 28 10 15 1019.0 1020.2 0.2
24/04:30pm 8.9 4.8 6.3 84 1.3 NNE 17 20 9 11 1018.8 - 0.2
24/04:00pm 9.5 5.0 6.0 79 1.7 NNE 19 26 10 14 1018.4 1019.6 0.2
24/03:30pm 10.5 5.2 6.6 77 1.9 N 24 28 13 15 1018.6 - 0.2
24/03:00pm 8.7 4.1 6.5 86 1.1 NNE 20 26 11 14 1018.4 1019.6 0.2
24/02:30pm 8.9 5.4 7.0 88 0.9 NE 15 19 8 10 1018.8 - 0.2
24/02:00pm 8.0 4.0 6.8 92 0.6 NE 17 22 9 12 1019.1 1020.3 0.2
24/01:30pm 7.8 4.2 6.7 93 0.5 NE 15 19 8 10 1019.4 - 0.2
24/01:00pm 7.8 3.7 6.1 89 0.8 NNE 17 22 9 12 1019.9 1021.1 0.0
24/12:30pm 8.2 4.9 6.3 88 0.9 NNE 13 19 7 10 1020.4 - 0.0
24/12:00pm 8.0 3.8 5.5 84 1.2 N 17 24 9 13 1020.9 1022.2 0.0
24/11:30am 8.7 4.8 5.4 80 1.6 NNE 15 17 8 9 1021.2 - 0.0
24/11:00am 8.7 4.9 5.8 82 1.4 NNE 15 19 8 10 1021.8 1023.1 0.0
24/10:30am 7.7 4.4 6.2 90 0.7 NNE 13 17 7 9 1021.9 - 0.0
24/10:00am 6.3 3.9 5.1 92 0.6 NNE 7 9 4 5 1022.4 1023.6 0.0
24/09:30am 6.2 3.0 5.0 92 0.6 ENE 11 15 6 8 1021.9 - 0.0
24/09:00am 6.4 3.6 5.2 92 0.6 ENE 9 11 5 6 1021.9 1023.2 0.0
24/08:30am 5.8 2.9 4.8 93 0.5 E 9 13 5 7 1021.4 - 0.0
24/08:00am 4.6 1.9 3.6 93 0.4 ENE 7 15 4 8 1021.1 1022.3 0.0
24/07:30am 3.1 0.3 2.1 93 0.4 ESE 6 7 3 4 1020.9 - 0.0
24/07:00am 1.9 0.1 0.9 93 0.4 CALM 0 6 0 3 1020.6 1021.8 0.0
24/06:30am 2.4 0.6 1.4 93 0.4 CALM 0 6 0 3 1020.3 - 0.0
24/06:00am 2.9 -0.1 1.9 93 0.4 N 7 9 4 5 1020.2 1021.4 0.0
24/05:30am 3.0 -0.8 1.8 92 0.5 N 11 13 6 7 1019.9 - 0.0
24/05:00am 4.2 0.2 3.0 92 0.5 NNE 13 17 7 9 1019.5 1020.7 0.0
24/04:30am 3.2 -0.5 2.2 93 0.4 NNE 11 15 6 8 1019.3 - 0.0
24/04:00am 2.6 -1.2 1.6 93 0.4 NNE 11 17 6 9 1019.3 1020.5 0.0
24/03:30am 1.8 -2.2 0.8 93 0.4 ENE 11 15 6 8 1019.4 - 0.0

Other Formats:

Comma delimited format used in spreadsheet applications
http://www.bom.gov.au/fwo/IDN60801/IDN60801.95726.axf

JavaScript Object Notation format (JSON) in row-major order
http://www.bom.gov.au/fwo/IDN60801/IDN60801.95726.json